createdAt,value
2022-11-05T00:00:37.774Z,14.98
2022-11-05T00:03:30.224Z,16.40
2022-11-05T00:06:27.935Z,15.52
2022-11-05T00:09:14.196Z,17.58
2022-11-05T00:12:00.278Z,17.33
2022-11-05T00:14:46.391Z,16.90
2022-11-05T00:17:16.412Z,17.73
2022-11-05T00:19:44.909Z,16.23
2022-11-05T00:22:31.218Z,18.25
2022-11-05T00:25:18.127Z,14.48
2022-11-05T00:27:48.196Z,17.30
2022-11-05T00:30:19.387Z,17.33
2022-11-05T00:32:51.062Z,16.60
2022-11-05T00:35:23.194Z,16.65
2022-11-05T00:37:51.765Z,15.00
2022-11-05T00:40:20.835Z,18.50
2022-11-05T00:43:07.153Z,16.27
2022-11-05T00:45:35.818Z,17.00
2022-11-05T00:48:24.114Z,18.58
2022-11-05T00:50:52.911Z,16.40
2022-11-05T00:53:21.564Z,18.15
2022-11-05T00:55:49.926Z,17.38
2022-11-05T00:58:20.130Z,17.80
2022-11-05T01:03:22.070Z,18.13
2022-11-05T01:05:52.279Z,16.52
2022-11-05T01:08:22.443Z,18.35
2022-11-05T01:10:52.868Z,17.10
2022-11-05T01:13:23.495Z,17.60
2022-11-05T01:15:52.737Z,15.52
2022-11-05T01:18:23.991Z,16.75
2022-11-05T01:20:52.822Z,15.70
2022-11-05T01:23:21.771Z,16.45
2022-11-05T01:25:50.333Z,18.23
2022-11-05T01:28:19.120Z,18.13
2022-11-05T01:30:47.780Z,16.90
2022-11-05T01:33:16.433Z,18.88
2022-11-05T01:35:46.452Z,19.98
2022-11-05T01:38:15.140Z,18.48
2022-11-05T01:40:44.295Z,18.15
2022-11-05T01:43:16.191Z,17.73
2022-11-05T01:45:46.275Z,16.73
2022-11-05T01:48:17.446Z,18.67
2022-11-05T01:50:53.568Z,17.77
2022-11-05T01:53:26.401Z,17.98
2022-11-05T01:55:58.519Z,19.42
2022-11-05T01:58:31.893Z,18.60
2022-11-05T02:01:00.629Z,17.80
2022-11-05T02:03:30.246Z,11.02
2022-11-05T02:06:01.247Z,17.90
2022-11-05T02:08:47.529Z,16.27
2022-11-05T02:11:18.611Z,18.33
2022-11-05T02:13:47.893Z,16.50
2022-11-05T02:16:29.237Z,17.13
2022-11-05T02:19:01.298Z,16.00
2022-11-05T02:22:01.150Z,17.58
2022-11-05T02:25:03.353Z,17.27
2022-11-05T02:28:07.007Z,18.55
2022-11-05T02:30:43.911Z,17.95
2022-11-05T02:33:23.060Z,17.95
2022-11-05T02:36:15.303Z,18.33
2022-11-05T02:38:50.216Z,19.70
2022-11-05T02:41:25.251Z,18.95
2022-11-05T02:44:04.046Z,16.95
2022-11-05T02:46:43.830Z,18.60
2022-11-05T02:49:21.003Z,19.50
2022-11-05T02:51:55.085Z,14.93
2022-11-05T02:54:26.556Z,18.88
2022-11-05T02:56:57.033Z,19.33
2022-11-05T03:01:55.530Z,19.63
2022-11-05T03:04:27.640Z,18.05
2022-11-05T03:07:23.778Z,19.17
2022-11-05T03:10:15.553Z,19.15
2022-11-05T03:12:52.185Z,19.55
2022-11-05T03:15:28.437Z,17.58
2022-11-05T03:18:03.519Z,19.13
2022-11-05T03:20:37.349Z,18.58
2022-11-05T03:23:11.834Z,19.65
2022-11-05T03:25:45.216Z,19.67
2022-11-05T03:28:15.278Z,19.48
2022-11-05T03:30:44.580Z,19.77
2022-11-05T03:33:19.086Z,17.25
2022-11-05T03:35:49.418Z,16.05
2022-11-05T03:38:22.328Z,20.45
2022-11-05T03:40:53.512Z,20.98
2022-11-05T03:43:24.491Z,19.30
2022-11-05T03:45:57.627Z,21.10
2022-11-05T03:48:29.953Z,20.02
2022-11-05T03:51:02.473Z,22.10
2022-11-05T03:53:34.696Z,19.65
2022-11-05T03:56:05.390Z,20.25
2022-11-05T03:58:33.749Z,21.27
2022-11-05T04:01:03.474Z,18.63
2022-11-05T04:03:36.672Z,19.08
2022-11-05T04:06:23.704Z,20.05
2022-11-05T04:09:09.770Z,20.55
2022-11-05T04:11:55.920Z,23.17
2022-11-05T04:14:26.343Z,21.45
2022-11-05T04:17:10.387Z,22.77
2022-11-05T04:19:59.324Z,23.17
2022-11-05T04:22:46.859Z,23.55
2022-11-05T04:25:16.621Z,22.35
2022-11-05T04:27:45.672Z,21.35
2022-11-05T04:30:20.721Z,21.20
2022-11-05T04:33:00.310Z,21.90
2022-11-05T04:35:31.703Z,22.00
2022-11-05T04:38:00.340Z,24.42
2022-11-05T04:40:29.171Z,25.35
2022-11-05T04:42:58.543Z,25.60
2022-11-05T04:45:28.759Z,26.42
2022-11-05T04:47:57.556Z,20.75
2022-11-05T04:50:26.222Z,21.90
2022-11-05T04:52:55.935Z,19.30
2022-11-05T04:55:24.641Z,26.52
2022-11-05T04:57:54.033Z,24.42
2022-11-05T05:00:23.805Z,20.27
2022-11-05T05:02:52.524Z,23.83
2022-11-05T05:05:22.684Z,25.58
2022-11-05T05:07:51.033Z,24.33
2022-11-05T05:10:21.156Z,24.85
2022-11-05T05:12:49.884Z,26.15
2022-11-05T05:15:18.626Z,24.25
2022-11-05T05:17:51.813Z,18.77
2022-11-05T05:20:38.148Z,25.60
2022-11-05T05:23:06.711Z,26.23
2022-11-05T05:25:36.849Z,26.55
2022-11-05T05:28:05.673Z,26.05
2022-11-05T05:30:34.342Z,27.85
2022-11-05T05:33:04.097Z,26.90
2022-11-05T05:35:33.760Z,26.38
2022-11-05T05:38:02.451Z,28.15
2022-11-05T05:40:30.709Z,28.90
2022-11-05T05:43:00.739Z,28.42
2022-11-05T05:45:29.404Z,27.13
2022-11-05T05:47:58.109Z,30.33
2022-11-05T05:50:26.702Z,27.48
2022-11-05T05:52:55.131Z,31.23
2022-11-05T05:55:23.709Z,24.73
2022-11-05T05:57:52.306Z,30.10
2022-11-05T06:00:22.609Z,32.53
2022-11-05T06:02:51.292Z,32.30
2022-11-05T06:05:19.913Z,31.20
2022-11-05T06:07:48.315Z,29.75
2022-11-05T06:10:17.030Z,31.85
2022-11-05T06:12:45.672Z,33.17
2022-11-05T06:15:14.404Z,35.35
2022-11-05T06:17:45.846Z,28.48
2022-11-05T06:20:14.605Z,30.92
2022-11-05T06:22:42.852Z,27.30
2022-11-05T06:25:11.842Z,32.42
2022-11-05T06:27:40.430Z,33.25
2022-11-05T06:30:10.443Z,29.08
2022-11-05T06:32:39.298Z,33.08
2022-11-05T06:35:10.017Z,29.10
2022-11-05T06:40:08.274Z,29.38
2022-11-05T06:42:36.999Z,28.70
2022-11-05T06:45:06.596Z,30.20
2022-11-05T06:47:35.246Z,28.93
2022-11-05T06:50:04.016Z,27.40
2022-11-05T06:52:38.325Z,26.75
2022-11-05T06:55:10.425Z,28.60
2022-11-05T06:57:39.450Z,27.77
2022-11-05T07:00:10.850Z,25.63
2022-11-05T07:02:39.452Z,25.95
2022-11-05T07:05:11.238Z,26.83
2022-11-05T07:07:41.086Z,23.23
2022-11-05T07:10:13.353Z,26.25
2022-11-05T07:12:42.087Z,26.20
2022-11-05T07:15:11.885Z,27.15
2022-11-05T07:17:40.763Z,26.50
2022-11-05T07:20:10.819Z,26.70
2022-11-05T07:22:40.632Z,26.25
2022-11-05T07:25:10.029Z,26.48
2022-11-05T07:27:39.556Z,25.95
2022-11-05T07:30:10.147Z,27.67
2022-11-05T07:32:39.756Z,21.27
2022-11-05T07:35:09.527Z,25.47
2022-11-05T07:37:45.540Z,27.98
2022-11-05T07:40:15.735Z,24.95
2022-11-05T07:42:45.144Z,25.83
2022-11-05T07:45:14.042Z,26.98
2022-11-05T07:47:47.327Z,27.15
2022-11-05T07:50:16.951Z,26.45
2022-11-05T07:52:47.987Z,20.38
2022-11-05T07:55:17.311Z,25.65
2022-11-05T07:57:47.004Z,28.35
2022-11-05T08:00:17.405Z,26.90
2022-11-05T08:05:15.963Z,27.95
2022-11-05T08:07:44.349Z,26.45
2022-11-05T08:10:14.476Z,28.17
2022-11-05T08:12:43.104Z,28.55
2022-11-05T08:15:12.133Z,26.08
2022-11-05T08:17:41.864Z,26.98
2022-11-05T08:20:11.890Z,28.00
2022-11-05T08:22:43.744Z,28.73
2022-11-05T08:25:12.644Z,25.27
2022-11-05T08:27:42.755Z,25.27
2022-11-05T08:30:12.214Z,26.83
2022-11-05T08:32:40.875Z,28.92
2022-11-05T08:35:09.784Z,23.80
2022-11-05T08:37:38.125Z,25.10
2022-11-05T08:40:08.143Z,24.17
2022-11-05T08:42:36.915Z,27.60
2022-11-05T08:45:08.314Z,30.60
2022-11-05T08:47:37.020Z,25.08
2022-11-05T08:50:06.051Z,26.95
2022-11-05T08:52:34.321Z,25.48
2022-11-05T08:55:03.067Z,28.67
2022-11-05T08:57:31.808Z,28.70
2022-11-05T09:00:00.433Z,23.45
2022-11-05T09:02:30.714Z,26.33
2022-11-05T09:28:14.773Z,28.65
2022-11-05T09:30:47.251Z,26.05
2022-11-05T09:33:18.113Z,28.15
2022-11-05T09:35:46.883Z,27.45
2022-11-05T09:38:15.719Z,28.45
2022-11-05T09:40:46.638Z,30.70
2022-11-05T09:43:18.949Z,27.52
2022-11-05T09:45:48.569Z,28.65
2022-11-05T09:48:22.045Z,25.13
2022-11-05T09:50:52.019Z,33.45
2022-11-05T09:53:22.097Z,22.42
2022-11-05T09:55:52.164Z,30.02
2022-11-05T10:00:58.714Z,30.42
2022-11-05T10:03:31.033Z,26.60
2022-11-05T10:06:05.498Z,28.15
2022-11-05T10:08:36.459Z,19.13
2022-11-05T10:11:08.280Z,29.90
2022-11-05T10:13:39.411Z,31.25
2022-11-05T10:16:22.151Z,32.25
2022-11-05T10:18:55.302Z,30.33
2022-11-05T10:21:44.351Z,31.95
2022-11-05T10:24:15.784Z,32.10
2022-11-05T10:26:46.584Z,28.30
2022-11-05T10:29:19.224Z,25.60
2022-11-05T10:31:47.654Z,30.23
2022-11-05T10:34:19.049Z,30.33
2022-11-05T10:36:47.721Z,33.90
2022-11-05T10:39:17.921Z,32.60
2022-11-05T10:42:06.096Z,31.67
2022-11-05T10:44:39.261Z,28.50
2022-11-05T10:47:34.517Z,34.90
2022-11-05T10:50:06.303Z,33.38
2022-11-05T10:52:37.256Z,30.83
2022-11-05T10:55:12.352Z,32.75
2022-11-05T10:57:42.559Z,31.23
2022-11-05T11:00:25.371Z,33.83
2022-11-05T11:02:56.378Z,34.20
2022-11-05T11:05:28.925Z,35.65
2022-11-05T11:07:59.826Z,32.20
2022-11-05T11:10:29.445Z,35.22
2022-11-05T11:12:58.806Z,38.27
2022-11-05T11:15:28.915Z,32.13
2022-11-05T11:17:57.990Z,34.28
2022-11-05T11:20:29.870Z,33.58
2022-11-05T11:23:03.072Z,39.67
2022-11-05T11:25:34.893Z,38.55
2022-11-05T11:28:05.371Z,36.85
2022-11-05T11:30:35.277Z,37.13
2022-11-05T11:33:09.005Z,39.20
2022-11-05T11:35:40.124Z,36.33
2022-11-05T11:38:12.849Z,37.92
2022-11-05T11:40:41.208Z,39.17
2022-11-05T11:43:16.653Z,38.03
2022-11-05T11:45:47.641Z,36.72
2022-11-05T11:48:19.586Z,38.17
2022-11-05T11:50:50.364Z,37.25
2022-11-05T11:53:28.042Z,39.75
2022-11-05T11:56:02.632Z,39.80
2022-11-05T11:58:39.900Z,40.85
2022-11-05T12:01:21.844Z,41.38
2022-11-05T12:03:52.813Z,37.45
2022-11-05T12:06:28.124Z,37.50
2022-11-05T12:09:06.724Z,41.55
2022-11-05T12:11:40.522Z,42.65
2022-11-05T12:14:19.483Z,41.92
2022-11-05T12:16:59.321Z,42.80
2022-11-05T12:19:59.693Z,42.28
2022-11-05T12:22:41.324Z,41.13
2022-11-05T12:25:16.039Z,38.45
2022-11-05T12:27:59.259Z,41.28
2022-11-05T12:30:29.377Z,40.78
2022-11-05T12:33:15.640Z,41.42
2022-11-05T12:35:58.203Z,41.35
2022-11-05T12:38:48.073Z,41.67
2022-11-05T12:41:22.588Z,41.50
2022-11-05T12:44:01.940Z,40.03
2022-11-05T12:46:36.615Z,41.97
2022-11-05T12:49:24.585Z,41.97
2022-11-05T12:52:06.479Z,41.50
2022-11-05T12:54:47.113Z,39.83
2022-11-05T12:57:16.505Z,42.35
2022-11-05T12:59:52.245Z,41.10
2022-11-05T13:02:26.664Z,38.90
2022-11-05T13:04:58.974Z,39.97
2022-11-05T13:07:31.442Z,42.80
2022-11-05T13:10:05.533Z,41.97
2022-11-05T13:12:37.761Z,41.08
2022-11-05T13:15:10.454Z,41.95
2022-11-05T13:17:44.749Z,44.17
2022-11-05T13:20:18.213Z,42.95
2022-11-05T13:22:48.121Z,42.17
2022-11-05T13:25:22.610Z,41.95
2022-11-05T13:27:56.398Z,42.70
2022-11-05T13:30:26.848Z,42.25
2022-11-05T13:35:29.473Z,45.65
2022-11-05T13:38:17.491Z,44.85
2022-11-05T13:40:57.596Z,43.17
2022-11-05T13:43:35.560Z,45.53
2022-11-05T13:46:25.053Z,44.72
2022-11-05T13:49:06.907Z,47.90
2022-11-05T13:51:53.648Z,45.20
2022-11-05T13:54:54.749Z,46.03
2022-11-05T13:57:46.812Z,46.60
2022-11-05T14:00:18.689Z,45.53
2022-11-05T14:02:51.096Z,47.25
2022-11-05T14:05:26.980Z,54.13
2022-11-05T14:07:56.122Z,51.65
2022-11-05T14:10:32.848Z,50.35
2022-11-05T14:13:09.984Z,54.97
2022-11-05T14:15:39.016Z,60.13
2022-11-05T14:18:19.846Z,56.30
2022-11-05T14:20:59.839Z,57.38
2022-11-05T14:23:38.004Z,60.38
2022-11-05T14:26:18.700Z,56.35
2022-11-05T14:29:04.829Z,47.38
2022-11-05T14:34:55.942Z,49.72
2022-11-05T14:37:29.416Z,48.25
2022-11-05T14:39:58.871Z,46.22
2022-11-05T14:42:29.990Z,49.10
2022-11-05T14:45:24.608Z,49.13
2022-11-05T14:47:55.436Z,46.25
2022-11-05T14:50:28.952Z,48.53
2022-11-05T14:52:59.848Z,52.88
2022-11-05T14:55:30.833Z,50.38
2022-11-05T14:58:22.016Z,51.33
2022-11-05T15:00:52.188Z,51.05
2022-11-05T15:03:47.439Z,54.25
2022-11-05T15:06:25.846Z,53.83
2022-11-05T15:09:23.097Z,52.47
2022-11-05T15:12:02.568Z,56.92
2022-11-05T15:14:33.904Z,58.10
2022-11-05T15:17:13.658Z,58.75
2022-11-05T15:19:43.187Z,57.47
2022-11-05T15:22:23.073Z,58.05
2022-11-05T15:24:52.023Z,64.75
2022-11-05T15:27:35.577Z,64.95
2022-11-05T15:30:12.070Z,62.88
2022-11-05T15:32:42.166Z,63.30
2022-11-05T15:35:23.563Z,54.42
2022-11-05T15:37:57.287Z,57.50
2022-11-05T15:40:30.816Z,56.10
2022-11-05T15:43:17.644Z,59.10
2022-11-05T15:45:59.291Z,54.60
2022-11-05T15:48:29.320Z,57.78
2022-11-05T15:50:58.053Z,55.55
2022-11-05T15:54:23.954Z,53.13
2022-11-05T15:56:49.271Z,55.45
2022-11-05T15:59:19.671Z,53.67
2022-11-05T16:01:49.752Z,52.60
2022-11-05T16:04:23.068Z,47.58
2022-11-05T16:06:55.431Z,55.83
2022-11-05T16:09:27.051Z,55.63
2022-11-05T16:12:14.038Z,57.65
2022-11-05T16:14:43.118Z,57.53
2022-11-05T16:17:19.237Z,55.47
2022-11-05T16:19:49.851Z,55.83
2022-11-05T16:22:18.993Z,55.60
2022-11-05T16:24:47.756Z,52.00
2022-11-05T16:27:19.720Z,58.83
2022-11-05T16:29:51.371Z,58.33
2022-11-05T16:32:28.357Z,57.47
2022-11-05T16:35:01.601Z,63.83
2022-11-05T16:37:33.123Z,60.30
2022-11-05T16:40:03.719Z,54.95
2022-11-05T16:42:40.384Z,56.25
2022-11-05T16:45:13.718Z,55.70
2022-11-05T16:47:42.878Z,53.45
2022-11-05T16:50:28.314Z,52.05
2022-11-05T16:52:56.684Z,47.50
2022-11-05T16:55:25.398Z,48.67
2022-11-05T16:57:55.479Z,43.75
2022-11-05T17:00:25.382Z,42.67
2022-11-05T17:02:54.703Z,44.80
2022-11-05T17:05:27.374Z,42.95
2022-11-05T17:07:57.701Z,44.72
2022-11-05T17:10:27.183Z,47.08
2022-11-05T17:12:55.853Z,42.03
2022-11-05T17:15:26.435Z,42.55
2022-11-05T17:17:56.720Z,45.20
2022-11-05T17:20:36.793Z,50.83
2022-11-05T17:23:10.711Z,53.88
2022-11-05T17:25:39.898Z,50.08
2022-11-05T17:28:09.351Z,50.97
2022-11-05T17:30:41.382Z,53.40
2022-11-05T17:33:11.310Z,48.50
2022-11-05T17:35:40.857Z,51.33
2022-11-05T17:38:11.338Z,47.38
2022-11-05T17:40:40.276Z,48.65
2022-11-05T17:43:09.016Z,46.97
2022-11-05T17:45:43.900Z,45.60
2022-11-05T17:48:12.894Z,45.08
2022-11-05T17:50:42.444Z,44.95
2022-11-05T17:53:13.613Z,42.20
2022-11-05T17:55:42.777Z,41.70
2022-11-05T17:58:11.567Z,40.22
2022-11-05T18:00:41.010Z,40.55
2022-11-05T18:03:11.112Z,39.50
2022-11-05T18:08:09.582Z,38.00
2022-11-05T18:10:39.850Z,39.08
2022-11-05T18:13:08.779Z,36.03
2022-11-05T18:15:41.229Z,35.20
2022-11-05T18:18:10.472Z,36.53
2022-11-05T18:20:39.520Z,34.00
2022-11-05T18:23:08.179Z,31.35
2022-11-05T18:25:38.174Z,31.08
2022-11-05T18:30:35.540Z,26.02
2022-11-05T18:33:04.175Z,22.35
2022-11-05T18:35:32.768Z,23.08
2022-11-05T18:38:01.492Z,23.05
2022-11-05T18:40:29.828Z,20.73
2022-11-05T18:42:59.755Z,18.38
2022-11-05T18:45:29.918Z,18.83
2022-11-05T18:50:27.125Z,17.48
2022-11-05T18:52:55.500Z,17.05
2022-11-05T18:55:24.503Z,17.00
2022-11-05T18:57:53.211Z,17.08
2022-11-05T19:00:23.526Z,16.35
2022-11-05T19:05:29.793Z,15.40
2022-11-05T19:07:58.507Z,16.77
2022-11-05T19:10:27.483Z,16.15
2022-11-05T19:12:56.255Z,16.52
2022-11-05T19:15:26.243Z,16.13
2022-11-05T19:17:54.904Z,15.90
2022-11-05T19:20:23.568Z,14.13
2022-11-05T19:22:51.864Z,14.82
2022-11-05T19:25:20.535Z,15.13
2022-11-05T19:27:49.209Z,12.70
2022-11-05T19:30:17.806Z,13.52
2022-11-05T19:32:47.869Z,14.13
2022-11-05T19:35:16.601Z,13.32
2022-11-05T19:37:45.166Z,13.93
2022-11-05T19:40:13.786Z,14.57
2022-11-05T19:42:42.413Z,15.85
2022-11-05T19:45:38.313Z,15.43
2022-11-05T19:48:01.730Z,16.40
2022-11-05T19:50:30.291Z,17.05
2022-11-05T19:52:58.982Z,15.88
2022-11-05T19:55:27.382Z,14.15
2022-11-05T19:57:56.066Z,14.93
2022-11-05T20:00:24.781Z,13.90
2022-11-05T20:02:53.603Z,14.98
2022-11-05T20:05:23.705Z,15.30
2022-11-05T20:07:53.225Z,14.63
2022-11-05T20:10:22.603Z,16.73
2022-11-05T20:12:51.421Z,15.55
2022-11-05T20:15:20.241Z,15.45
2022-11-05T20:17:52.432Z,15.32
2022-11-05T20:20:21.076Z,16.40
2022-11-05T20:22:52.844Z,16.73
2022-11-05T20:25:21.543Z,15.80
2022-11-05T20:27:50.209Z,15.93
2022-11-05T20:30:19.714Z,17.02
2022-11-05T20:32:48.329Z,16.47
2022-11-05T20:35:17.144Z,17.15
2022-11-05T20:37:48.493Z,17.73
2022-11-05T20:40:23.141Z,16.77
2022-11-05T20:42:51.797Z,17.27
2022-11-05T20:45:20.415Z,18.15
2022-11-05T20:47:49.027Z,17.75
2022-11-05T20:50:18.026Z,16.98
2022-11-05T20:52:46.584Z,18.70
2022-11-05T20:55:15.274Z,18.83
2022-11-05T20:57:45.277Z,19.20
2022-11-05T21:00:15.243Z,19.20
2022-11-05T21:02:43.957Z,18.75
2022-11-05T21:05:12.747Z,19.67
2022-11-05T21:07:41.085Z,19.25
2022-11-05T21:10:10.115Z,19.63
2022-11-05T21:12:38.758Z,17.38
2022-11-05T21:15:10.621Z,20.00
2022-11-05T21:17:39.291Z,20.02
2022-11-05T21:20:08.756Z,18.55
2022-11-05T21:22:37.039Z,21.15
2022-11-05T21:25:06.284Z,19.27
2022-11-05T21:27:34.948Z,20.25
2022-11-05T21:30:03.578Z,20.70
2022-11-05T21:32:33.795Z,20.90
2022-11-05T21:35:02.656Z,20.25
2022-11-05T21:37:31.206Z,20.05
2022-11-05T21:39:59.805Z,19.98
2022-11-05T21:42:29.969Z,19.40
2022-11-05T21:45:00.575Z,20.02
2022-11-05T21:47:30.569Z,19.13
2022-11-05T21:50:00.640Z,18.15
2022-11-05T21:52:46.509Z,19.08
2022-11-05T21:55:35.925Z,17.67
2022-11-05T21:58:28.742Z,18.10
2022-11-05T22:00:57.354Z,17.45
2022-11-05T22:03:25.982Z,16.70
2022-11-05T22:05:57.328Z,17.15
2022-11-05T22:08:25.968Z,18.35
2022-11-05T22:10:54.270Z,16.92
2022-11-05T22:13:22.930Z,17.23
2022-11-05T22:15:57.711Z,16.98
2022-11-05T22:18:26.552Z,16.88
2022-11-05T22:20:56.568Z,16.77
2022-11-05T22:23:25.226Z,17.63
2022-11-05T22:26:00.100Z,17.15
2022-11-05T22:28:28.723Z,18.05
2022-11-05T22:30:57.347Z,18.00
2022-11-05T22:33:26.198Z,19.05
2022-11-05T22:35:56.286Z,18.92
2022-11-05T22:38:25.051Z,18.83
2022-11-05T22:40:53.592Z,19.80
2022-11-05T22:43:22.258Z,18.95
2022-11-05T22:45:50.892Z,19.38
2022-11-05T22:48:19.520Z,20.25
2022-11-05T22:50:48.121Z,21.15
2022-11-05T22:53:18.091Z,19.48
2022-11-05T22:55:46.336Z,19.87
2022-11-05T22:58:15.445Z,21.30
2022-11-05T23:00:44.435Z,20.83
2022-11-05T23:03:13.255Z,19.60
2022-11-05T23:05:42.015Z,19.48
2022-11-05T23:08:28.613Z,19.88
2022-11-05T23:11:16.374Z,21.15
2022-11-05T23:13:44.942Z,19.80
2022-11-05T23:16:30.803Z,19.15
2022-11-05T23:19:17.096Z,18.73
2022-11-05T23:22:03.379Z,19.48
2022-11-05T23:24:32.057Z,20.13
2022-11-05T23:27:02.086Z,20.00
2022-11-05T23:29:31.199Z,20.42
2022-11-05T23:32:17.285Z,19.52
2022-11-05T23:34:45.646Z,19.42
2022-11-05T23:37:31.636Z,19.17
2022-11-05T23:40:00.271Z,19.77
2022-11-05T23:42:47.723Z,20.63
2022-11-05T23:45:34.172Z,21.52
2022-11-05T23:48:20.029Z,20.95
2022-11-05T23:50:52.668Z,21.20
2022-11-05T23:53:21.380Z,20.23
2022-11-05T23:55:49.857Z,20.95
2022-11-05T23:58:20.316Z,21.08
